Time;durP1;ratioP1;P1;durP2;ratioP2;P2;SDS_P1;SDS_P2;PMS_P1;PMS_P2;Temp;Humidity;BMP_temperature;BMP_pressure;BME280_temperature;BME280_humidity;BME280_pressure;Samples;Min_cycle;Max_cycle;Signal;HPM_P1;HPM_P2
2022/04/28 00:01:57;;;;;;;20.85;11.60;;;;;;;8.92;85.54;100604.34;5000593;28;20064;-90
2022/04/28 00:04:22;;;;;;;18.83;11.45;;;;;;;8.80;85.01;100595.00;5020611;28;20431;-87
2022/04/28 00:06:48;;;;;;;18.80;12.20;;;;;;;8.77;85.16;100600.53;5000963;28;20033;-87
2022/04/28 00:09:13;;;;;;;20.08;11.80;;;;;;;8.80;85.77;100592.38;4987614;28;20072;-89
2022/04/28 00:11:39;;;;;;;24.50;11.65;;;;;;;8.98;85.83;100619.47;5001223;28;20034;-86
2022/04/28 00:14:07;;;;;;;19.30;11.10;;;;;;;8.59;85.56;100559.41;5013673;28;20054;-90
2022/04/28 00:16:37;;;;;;;21.58;11.45;;;;;;;8.59;85.42;100562.03;5012593;28;20044;-90
2022/04/28 00:19:03;;;;;;;19.88;11.88;;;;;;;8.71;86.00;100591.47;5014245;28;20033;-90
2022/04/28 00:21:30;;;;;;;19.88;11.60;;;;;;;8.49;86.14;100545.50;4995079;28;20042;-89
2022/04/28 00:23:56;;;;;;;19.80;11.52;;;;;;;8.49;85.72;100571.69;5007828;28;20487;-89
2022/04/28 00:26:21;;;;;;;19.95;11.25;;;;;;;8.43;86.48;100547.72;4992325;28;20037;-89
2022/04/28 00:28:48;;;;;;;22.75;10.65;;;;;;;8.64;86.46;100575.50;4988178;28;20026;-89
2022/04/28 00:31:14;;;;;;;21.88;10.90;;;;;;;8.60;86.28;100573.34;5002137;28;20037;-89
2022/04/28 00:33:41;;;;;;;19.55;11.68;;;;;;;8.69;86.78;100572.44;5025087;28;20034;-89
2022/04/28 00:36:08;;;;;;;20.60;10.63;;;;;;;8.62;87.69;100572.19;4993613;28;20038;-90
2022/04/28 00:38:37;;;;;;;18.63;11.07;;;;;;;8.07;86.83;100494.41;4996510;28;20057;-90
2022/04/28 00:41:05;;;;;;;24.35;11.57;;;;;;;8.60;86.57;100595.06;4979521;28;20062;-90
2022/04/28 00:43:32;;;;;;;20.90;10.57;;;;;;;8.01;86.74;100493.19;4980933;28;20049;-90
2022/04/28 00:46:00;;;;;;;18.33;10.90;;;;;;;8.12;86.58;100508.72;4996790;28;20062;-89
2022/04/28 00:51:12;;;;;;;16.80;10.02;;;;;;;8.71;87.42;100588.84;5035618;28;20063;-90
2022/04/28 00:53:58;;;;;;;25.23;11.13;;;;;;;8.46;87.19;100544.00;5003718;28;20049;-87
2022/04/28 00:56:26;;;;;;;17.73;10.32;;;;;;;8.73;86.91;100579.03;4987504;28;20566;-90
2022/04/28 00:58:53;;;;;;;16.98;11.00;;;;;;;8.49;87.01;100550.75;5008733;28;20045;-89
2022/04/28 01:01:19;;;;;;;18.77;10.38;;;;;;;8.50;86.83;100547.19;5019858;28;20038;-90
2022/04/28 01:03:45;;;;;;;18.90;10.85;;;;;;;8.37;86.77;100519.50;4990394;28;20042;-90
2022/04/28 01:06:12;;;;;;;18.75;10.77;;;;;;;8.30;87.11;100526.28;5000750;28;20033;-91
2022/04/28 01:08:39;;;;;;;18.48;9.95;;;;;;;8.32;87.57;100529.59;5023641;28;20396;-90
2022/04/28 01:11:06;;;;;;;17.33;10.43;;;;;;;8.23;87.54;100514.72;5024965;28;20025;-90
2022/04/28 01:13:31;;;;;;;18.98;10.63;;;;;;;8.12;87.85;100495.66;5006143;28;20122;-89
2022/04/28 01:15:57;;;;;;;20.65;10.48;;;;;;;8.31;87.91;100548.03;4998454;28;20076;-90
2022/04/28 01:18:23;;;;;;;14.20;10.57;;;;;;;8.22;87.76;100539.25;5011597;28;20045;-90
2022/04/28 01:20:48;;;;;;;16.67;9.85;;;;;;;8.41;88.11;100560.13;5007629;28;20036;-91
2022/04/28 01:23:14;;;;;;;16.80;10.45;;;;;;;8.44;87.59;100554.59;5014494;28;20033;-89
2022/04/28 01:25:40;;;;;;;21.80;10.73;;;;;;;8.17;88.23;100515.31;5018929;28;20041;-90
2022/04/28 01:28:06;;;;;;;22.05;11.07;;;;;;;8.33;88.71;100554.78;5016850;28;20049;-90
2022/04/28 01:30:36;;;;;;;20.33;11.07;;;;;;;8.12;88.50;100507.88;4986047;28;20030;-89
2022/04/28 01:33:01;;;;;;;16.27;10.73;;;;;;;8.33;88.51;100552.16;5008878;28;20134;-89
2022/04/28 01:35:27;;;;;;;20.35;11.90;;;;;;;8.40;89.06;100573.38;5009956;28;20116;-89
2022/04/28 01:37:53;;;;;;;16.45;11.23;;;;;;;8.18;88.62;100527.44;5015137;28;20064;-89
2022/04/28 01:40:20;;;;;;;21.00;11.30;;;;;;;8.41;88.45;100564.53;5011481;28;20038;-89
2022/04/28 01:42:50;;;;;;;20.50;11.50;;;;;;;8.29;88.64;100553.44;5008456;28;20029;-89
2022/04/28 01:45:17;;;;;;;18.40;10.45;;;;;;;8.35;89.42;100539.78;5016757;28;20379;-90
2022/04/28 01:47:42;;;;;;;18.13;10.77;;;;;;;8.74;88.92;100596.41;5008499;28;20037;-89
2022/04/28 01:50:12;;;;;;;16.02;10.55;;;;;;;8.41;88.72;100564.53;5010337;28;20471;-90
2022/04/28 01:55:25;;;;;;;22.70;10.77;;;;;;;8.57;89.22;100595.38;5008696;28;20038;-88
2022/04/28 01:57:51;;;;;;;19.67;10.93;;;;;;;8.26;89.57;100572.03;5009006;28;20042;-89
2022/04/28 02:00:17;;;;;;;19.08;11.07;;;;;;;8.15;89.82;100557.28;5028470;28;20030;-90
2022/04/28 02:02:43;;;;;;;20.88;11.15;;;;;;;8.44;89.52;100582.56;5000556;28;20033;-90
2022/04/28 02:05:10;;;;;;;18.75;10.90;;;;;;;8.64;89.62;100585.97;5020075;28;20125;-90
2022/04/28 02:07:40;;;;;;;19.42;11.50;;;;;;;8.51;89.44;100546.22;4993298;28;20037;-90
2022/04/28 02:10:06;;;;;;;20.00;10.85;;;;;;;8.25;89.44;100520.66;4990495;28;20075;-90
2022/04/28 02:12:32;;;;;;;22.73;11.45;;;;;;;8.51;89.16;100561.94;4971547;28;20074;-89
2022/04/28 02:14:58;;;;;;;21.52;10.48;;;;;;;8.56;89.30;100575.41;5002213;28;20022;-90
2022/04/28 02:17:26;;;;;;;19.70;11.40;;;;;;;8.53;89.28;100573.06;4994855;28;20042;-89
2022/04/28 02:19:52;;;;;;;17.27;11.05;;;;;;;8.44;89.53;100551.16;4989791;28;20041;-90
2022/04/28 02:22:19;;;;;;;20.27;10.77;;;;;;;8.68;89.18;100587.34;5007457;28;20652;-89
2022/04/28 02:24:45;;;;;;;19.98;10.73;;;;;;;8.38;89.17;100525.59;4987859;28;20037;-90
2022/04/28 02:27:12;;;;;;;16.60;10.52;;;;;;;8.90;89.75;100600.19;5016609;28;20503;-90
2022/04/28 02:29:37;;;;;;;23.63;12.55;;;;;;;9.00;89.82;100612.28;5001219;28;20038;-90
2022/04/28 02:32:03;;;;;;;22.73;11.40;;;;;;;8.98;89.79;100619.47;5025161;28;20025;-91
2022/04/28 02:34:29;;;;;;;21.17;10.50;;;;;;;8.68;89.80;100579.50;5024368;28;20042;-90
2022/04/28 02:36:56;;;;;;;17.45;9.95;;;;;;;8.81;89.21;100600.09;5012916;28;20393;-91
2022/04/28 02:39:21;;;;;;;23.58;11.50;;;;;;;8.68;89.74;100582.13;5026934;28;20085;-89
2022/04/28 02:41:47;;;;;;;19.40;10.77;;;;;;;8.71;89.59;100581.81;5010272;28;20026;-90
2022/04/28 02:44:13;;;;;;;18.73;10.35;;;;;;;8.48;89.76;100546.50;5020420;28;20056;-91
2022/04/28 02:46:40;;;;;;;14.75;9.90;;;;;;;8.55;89.95;100560.66;5016430;28;20038;-91
2022/04/28 02:49:06;;;;;;;16.17;9.57;;;;;;;8.79;90.09;100604.66;5005253;28;20045;-87
2022/04/28 02:51:31;;;;;;;16.23;10.02;;;;;;;8.86;90.02;100623.25;5016071;28;20026;-88
2022/04/28 02:53:57;;;;;;;16.50;10.82;;;;;;;8.65;89.71;100603.34;5003752;28;20034;-89
2022/04/28 02:56:23;;;;;;;20.20;10.27;;;;;;;8.80;89.71;100618.56;5018357;28;20033;-89
2022/04/28 02:58:50;;;;;;;17.38;10.63;;;;;;;8.75;90.21;100612.94;5027068;28;20042;-89
2022/04/28 03:01:16;;;;;;;20.70;10.88;;;;;;;8.60;89.79;100589.84;5005501;28;20071;-89
2022/04/28 03:03:41;;;;;;;23.27;11.15;;;;;;;8.65;90.08;100581.56;5004676;28;20038;-91
2022/04/28 03:11:37;;;;;;;19.67;10.82;;;;;;;8.56;90.03;100591.09;5010478;28;20407;-90
2022/04/28 03:14:03;;;;;;;16.52;11.55;;;;;;;8.40;89.84;100568.94;4992107;28;20046;-90
2022/04/28 03:16:28;;;;;;;18.00;10.68;;;;;;;8.66;89.99;100596.31;4988931;28;20034;-90
2022/04/28 03:18:54;;;;;;;17.05;10.60;;;;;;;8.82;90.17;100606.16;5022023;28;20036;-89
2022/04/28 03:21:20;;;;;;;20.92;10.95;;;;;;;8.68;90.20;100592.59;5012861;28;20030;-89
2022/04/28 03:23:46;;;;;;;16.65;11.40;;;;;;;8.57;90.14;100575.28;4987765;28;20034;-89
2022/04/28 03:26:12;;;;;;;20.00;10.35;;;;;;;8.65;90.28;100590.25;5003078;28;20026;-90
2022/04/28 03:28:38;;;;;;;16.90;10.57;;;;;;;8.43;90.01;100584.34;4993771;28;20040;-90
2022/04/28 03:31:05;;;;;;;21.13;11.75;;;;;;;8.55;90.33;100586.84;5007472;28;20034;-89
2022/04/28 03:33:31;;;;;;;16.90;10.48;;;;;;;8.68;90.15;100603.06;4999134;28;20034;-90
2022/04/28 03:35:57;;;;;;;19.98;10.27;;;;;;;8.60;90.12;100568.91;5007529;28;20483;-89
2022/04/28 03:38:24;;;;;;;19.45;10.93;;;;;;;8.95;90.45;100626.81;5003283;28;20030;-89
2022/04/28 03:40:49;;;;;;;18.75;12.45;;;;;;;8.90;90.69;100611.50;4992440;28;20373;-90
2022/04/28 03:43:15;;;;;;;19.90;10.60;;;;;;;8.27;90.37;100505.66;5004934;28;20048;-89
2022/04/28 03:45:41;;;;;;;19.58;10.75;;;;;;;8.99;90.05;100615.88;4997153;28;20095;-90
2022/04/28 03:48:10;;;;;;;20.42;10.85;;;;;;;8.83;89.72;100597.34;4995048;28;20026;-89
2022/04/28 03:50:37;;;;;;;16.15;10.88;;;;;;;9.04;90.24;100620.69;4989137;28;20496;-89
2022/04/28 03:53:05;;;;;;;23.98;11.48;;;;;;;8.74;89.83;100572.03;5009190;28;20026;-90
2022/04/28 03:55:31;;;;;;;19.98;11.25;;;;;;;8.12;91.20;100589.81;5005900;28;20041;-90
2022/04/28 03:57:57;;;;;;;18.23;11.30;;;;;;;8.19;92.04;100603.16;5004255;28;20049;-90
2022/04/28 04:00:23;;;;;;;17.58;11.65;;;;;;;8.07;91.83;100578.09;5010983;28;20092;-89
2022/04/28 04:02:49;;;;;;;21.38;11.70;;;;;;;8.32;93.09;100631.63;4996230;28;20026;-90
2022/04/28 04:05:15;;;;;;;17.90;11.57;;;;;;;8.35;93.26;100628.72;4990702;28;20057;-90
2022/04/28 04:07:42;;;;;;;19.20;11.77;;;;;;;8.05;92.63;100590.50;5019895;28;20040;-91
2022/04/28 04:10:13;;;;;;;21.05;11.40;;;;;;;7.75;92.84;100546.06;5007553;28;20034;-91
2022/04/28 04:12:39;;;;;;;18.33;10.73;;;;;;;7.82;93.28;100555.00;5027214;28;20052;-91
2022/04/28 04:15:06;;;;;;;21.13;12.82;;;;;;;7.96;92.94;100573.84;5004109;28;20069;-90
2022/04/28 04:17:39;;;;;;;17.08;11.32;;;;;;;8.13;93.52;100607.16;4998547;28;20480;-89
2022/04/28 04:20:05;;;;;;;21.63;12.45;;;;;;;7.94;93.29;100588.84;4997290;28;20041;-89
2022/04/28 04:22:30;;;;;;;15.90;11.98;;;;;;;8.18;93.93;100624.19;5012018;28;20030;-91
2022/04/28 04:24:56;;;;;;;19.20;12.65;;;;;;;7.99;93.27;100597.09;5011318;28;20030;-89
2022/04/28 04:27:21;;;;;;;21.23;12.63;;;;;;;8.11;93.14;100616.09;4999643;28;20037;-90
2022/04/28 04:29:48;;;;;;;21.50;12.95;;;;;;;8.15;93.93;100631.38;5003525;28;20026;-89
2022/04/28 04:32:26;;;;;;;20.42;12.55;;;;;;;7.78;93.08;100564.09;4996407;28;20029;-91
2022/04/28 04:34:53;;;;;;;18.30;12.65;;;;;;;8.23;93.74;100640.28;5003095;28;20369;-90
2022/04/28 04:37:19;;;;;;;18.35;12.27;;;;;;;7.77;93.58;100578.13;4987237;28;20034;-89
2022/04/28 04:39:44;;;;;;;21.55;12.80;;;;;;;8.12;93.25;100636.88;5022334;28;20100;-91
2022/04/28 04:42:11;;;;;;;20.58;13.30;;;;;;;8.14;93.69;100645.41;5006581;28;20042;-90
2022/04/28 04:44:37;;;;;;;24.42;13.32;;;;;;;7.91;93.47;100610.88;5013223;28;20037;-91
2022/04/28 04:47:04;;;;;;;17.92;12.00;;;;;;;8.09;93.73;100634.53;5016221;28;20060;-91
2022/04/28 04:49:30;;;;;;;19.15;11.63;;;;;;;8.06;94.59;100624.38;5011674;28;20037;-90
2022/04/28 04:51:56;;;;;;;17.38;12.48;;;;;;;8.04;94.11;100621.03;5013780;28;20042;-91
2022/04/28 04:54:22;;;;;;;21.77;12.50;;;;;;;7.99;93.39;100618.03;5000304;28;20036;-92
2022/04/28 04:56:48;;;;;;;21.38;14.80;;;;;;;7.75;93.41;100574.81;5015828;28;20065;-91
2022/04/28 04:59:14;;;;;;;18.35;11.98;;;;;;;7.85;93.86;100596.56;4999224;28;20038;-91
2022/04/28 05:01:40;;;;;;;19.92;13.13;;;;;;;7.60;93.52;100557.91;5004765;28;20036;-91
2022/04/28 05:04:06;;;;;;;19.35;12.25;;;;;;;7.89;93.35;100601.53;5001984;28;20041;-89
2022/04/28 05:06:32;;;;;;;19.40;13.30;;;;;;;8.12;93.52;100633.44;4999823;28;20042;-89
2022/04/28 05:08:58;;;;;;;24.73;13.38;;;;;;;8.36;94.07;100661.78;4996253;28;20116;-90
2022/04/28 05:11:24;;;;;;;21.27;13.10;;;;;;;7.96;93.57;100600.84;4996866;28;20062;-89
2022/04/28 05:13:49;;;;;;;19.73;12.63;;;;;;;7.95;93.94;100585.28;4992575;28;20069;-89
2022/04/28 05:16:15;;;;;;;21.30;13.05;;;;;;;8.43;93.39;100662.84;4974311;28;20050;-90
2022/04/28 05:18:41;;;;;;;24.20;12.27;;;;;;;8.23;93.74;100633.28;5008096;28;20034;-89
2022/04/28 05:21:07;;;;;;;22.67;12.45;;;;;;;8.07;93.59;100612.09;5009166;28;20038;-90
2022/04/28 05:23:39;;;;;;;22.58;12.20;;;;;;;7.84;93.57;100576.59;4993441;28;20037;-89
2022/04/28 05:26:05;;;;;;;21.38;12.90;;;;;;;8.18;93.78;100627.66;5010511;28;20054;-90
2022/04/28 05:28:31;;;;;;;26.25;13.32;;;;;;;8.25;93.49;100638.38;5009686;28;20041;-90
2022/04/28 05:30:56;;;;;;;20.17;13.18;;;;;;;7.93;93.37;100581.97;5006717;28;20034;-89
2022/04/28 05:33:22;;;;;;;20.13;13.70;;;;;;;8.33;93.58;100640.28;4984939;28;20421;-89
2022/04/28 05:35:49;;;;;;;24.38;13.48;;;;;;;8.28;93.08;100625.03;4985097;28;20030;-88
2022/04/28 05:38:15;;;;;;;23.60;13.32;;;;;;;8.50;93.31;100662.34;4999047;28;20034;-88
2022/04/28 05:40:42;;;;;;;20.52;12.93;;;;;;;8.27;93.59;100621.56;4980862;28;20400;-88
2022/04/28 05:45:59;;;;;;;22.58;13.35;;;;;;;8.35;92.96;100649.66;4997692;28;20061;-90
2022/04/28 05:48:25;;;;;;;19.38;13.15;;;;;;;8.38;93.31;100648.56;4989472;28;20050;-90
2022/04/28 05:50:51;;;;;;;20.23;13.30;;;;;;;8.08;93.33;100606.75;4988892;28;20030;-89
2022/04/28 05:53:23;;;;;;;19.98;12.73;;;;;;;8.35;93.43;100643.59;4991797;28;20058;-89
2022/04/28 05:55:49;;;;;;;17.75;12.00;;;;;;;8.42;93.46;100645.50;4993272;28;20038;-90
2022/04/28 05:58:15;;;;;;;27.85;13.68;;;;;;;8.15;94.81;100592.13;4994202;28;20098;-90
2022/04/28 06:00:44;;;;;;;21.50;12.73;;;;;;;8.09;93.79;100576.16;4996789;28;20026;-91
2022/04/28 06:03:11;;;;;;;19.67;12.75;;;;;;;8.10;92.15;100572.59;5006698;28;20057;-89
2022/04/28 06:05:37;;;;;;;23.52;14.07;;;;;;;8.81;93.05;100685.69;4998276;28;20030;-91
2022/04/28 06:08:03;;;;;;;25.92;14.90;;;;;;;8.71;94.27;100657.75;4983362;28;20026;-90
2022/04/28 06:10:29;;;;;;;22.67;13.43;;;;;;;8.61;92.75;100643.84;4981027;28;20030;-89
2022/04/28 06:12:55;;;;;;;17.67;11.73;;;;;;;8.90;92.32;100699.72;4992980;28;20043;-90
2022/04/28 06:15:23;;;;;;;19.35;12.00;;;;;;;8.44;93.55;100633.09;4980045;28;20053;-90
2022/04/28 06:17:53;;;;;;;16.90;10.53;;;;;;;8.38;92.94;100601.47;4979053;28;20057;-90
2022/04/28 06:20:19;;;;;;;19.13;11.77;;;;;;;8.79;93.05;100662.28;4966157;28;20042;-90
2022/04/28 06:22:46;;;;;;;17.13;10.95;;;;;;;8.40;92.71;100586.44;4987111;28;20050;-90
2022/04/28 06:25:13;;;;;;;17.75;10.80;;;;;;;8.21;92.08;100585.53;4984431;28;20042;-89
2022/04/28 06:27:39;;;;;;;20.73;11.35;;;;;;;8.90;92.45;100663.88;4983558;28;20039;-90
2022/04/28 06:30:05;;;;;;;17.60;11.90;;;;;;;8.96;91.84;100657.25;4963983;28;20527;-89
2022/04/28 06:32:31;;;;;;;16.92;11.32;;;;;;;8.90;92.57;100647.34;4980396;28;20026;-90
2022/04/28 06:34:57;;;;;;;19.33;11.68;;;;;;;8.84;92.93;100636.47;4980004;28;20034;-91
2022/04/28 06:37:23;;;;;;;17.77;11.98;;;;;;;8.68;92.57;100610.06;4965882;28;20050;-92
2022/04/28 06:40:11;;;;;;;17.02;11.18;;;;;;;9.18;92.90;100653.44;4976170;28;20031;-85
2022/04/28 06:42:45;;;;;;;20.75;11.88;;;;;;;9.47;92.95;100681.28;4989295;28;20038;-84
2022/04/28 06:45:12;;;;;;;22.10;11.55;;;;;;;9.50;91.03;100696.72;4973492;28;20030;-87
2022/04/28 06:47:38;;;;;;;18.48;10.98;;;;;;;9.48;91.16;100675.06;4990105;28;20481;-88
2022/04/28 06:50:04;;;;;;;25.95;12.35;;;;;;;9.52;92.04;100678.22;4973848;28;20026;-89
2022/04/28 06:52:30;;;;;;;16.70;10.65;;;;;;;9.57;91.09;100700.41;4981660;28;20517;-88
2022/04/28 06:54:56;;;;;;;19.38;13.02;;;;;;;9.42;91.84;100673.84;4963165;28;20551;-88
2022/04/28 06:57:22;;;;;;;18.88;12.05;;;;;;;9.46;92.47;100694.53;4974104;28;20111;-86
2022/04/28 06:59:51;;;;;;;24.23;12.40;;;;;;;9.47;91.87;100697.00;4989981;28;20049;-87
2022/04/28 07:02:17;;;;;;;26.02;13.20;;;;;;;9.52;92.89;100689.53;4990078;28;20477;-86
2022/04/28 07:04:43;;;;;;;24.77;13.65;;;;;;;9.42;91.17;100697.44;4964312;28;20038;-86
2022/04/28 07:07:09;;;;;;;20.20;13.45;;;;;;;9.29;91.81;100691.72;4972857;28;20117;-86
2022/04/28 07:09:34;;;;;;;19.80;12.75;;;;;;;9.34;91.93;100713.09;4973402;28;20448;-85
2022/04/28 07:12:00;;;;;;;23.90;13.25;;;;;;;9.40;91.72;100711.66;4974470;28;20027;-86
2022/04/28 07:14:25;;;;;;;204.38;32.00;;;;;;;9.25;92.10;100704.28;4988318;28;20582;-85
2022/04/28 07:16:51;;;;;;;38.40;15.60;;;;;;;9.20;92.61;100700.44;5008916;28;20077;-86
2022/04/28 07:19:37;;;;;;;19.38;13.30;;;;;;;9.37;92.23;100711.94;4982250;28;20061;-84
2022/04/28 07:22:23;;;;;;;23.48;13.07;;;;;;;9.23;92.44;100724.53;4980909;28;20432;-83
2022/04/28 07:24:49;;;;;;;22.35;12.75;;;;;;;9.27;92.68;100686.63;4992570;28;20061;-84
2022/04/28 07:27:14;;;;;;;18.98;13.13;;;;;;;9.52;92.13;100710.50;4990780;28;20038;-83
2022/04/28 07:29:41;;;;;;;18.77;12.40;;;;;;;9.54;91.99;100713.00;5006002;28;20393;-88
2022/04/28 07:32:09;;;;;;;19.98;12.05;;;;;;;9.16;91.77;100658.00;5007659;28;20117;-82
2022/04/28 07:34:36;;;;;;;25.75;12.48;;;;;;;9.43;92.33;100706.97;4992283;28;20038;-86
2022/04/28 07:37:01;;;;;;;19.67;12.02;;;;;;;9.62;92.02;100699.13;5008231;28;20041;-87
2022/04/28 07:39:27;;;;;;;19.63;11.85;;;;;;;9.72;92.05;100699.91;4992659;28;20030;-86
2022/04/28 07:41:53;;;;;;;15.93;11.25;;;;;;;9.74;92.06;100716.31;4991324;28;20125;-87
2022/04/28 07:44:18;;;;;;;20.67;11.32;;;;;;;9.65;92.19;100694.41;5007853;28;20443;-86
2022/04/28 07:46:44;;;;;;;21.30;12.48;;;;;;;9.94;91.99;100735.38;4993281;28;20049;-85
2022/04/28 07:49:10;;;;;;;22.52;11.70;;;;;;;9.98;92.05;100725.41;4992448;28;20477;-85
2022/04/28 07:51:35;;;;;;;20.00;11.65;;;;;;;9.94;91.80;100717.03;4992525;28;20477;-85
2022/04/28 07:54:04;;;;;;;16.77;12.15;;;;;;;10.07;91.82;100735.03;4993437;28;20042;-85
2022/04/28 07:56:30;;;;;;;15.93;10.43;;;;;;;10.05;91.43;100736.13;4982247;28;20026;-85
2022/04/28 07:58:56;;;;;;;23.92;11.40;;;;;;;9.65;92.07;100683.13;4992322;28;20030;-86
2022/04/28 08:01:22;;;;;;;19.95;12.27;;;;;;;9.46;91.39;100631.63;5008033;28;20504;-86
2022/04/28 08:03:49;;;;;;;20.50;12.75;;;;;;;9.89;90.50;100694.84;5008021;28;20030;-86
2022/04/28 08:06:14;;;;;;;15.77;12.25;;;;;;;10.28;89.95;100729.44;4975533;28;20108;-86
2022/04/28 08:08:41;;;;;;;18.67;11.70;;;;;;;9.92;90.13;100657.81;4991938;28;20034;-86
2022/04/28 08:11:08;;;;;;;20.58;11.85;;;;;;;10.41;89.96;100683.66;4994015;28;20476;-85
2022/04/28 08:13:36;;;;;;;23.60;12.60;;;;;;;10.61;87.83;100697.44;4992535;28;20077;-83
2022/04/28 08:16:20;;;;;;;17.45;12.32;;;;;;;10.65;86.94;100722.41;4993359;28;20034;-88
2022/04/28 08:19:09;;;;;;;19.85;11.82;;;;;;;10.97;87.58;100749.84;4974907;28;20034;-86
2022/04/28 08:21:48;;;;;;;20.77;12.67;;;;;;;10.54;86.80;100668.34;4964208;28;20065;-86
2022/04/28 08:24:28;;;;;;;21.13;12.52;;;;;;;10.99;87.26;100742.63;4971141;28;20477;-88
2022/04/28 08:27:25;;;;;;;20.95;12.77;;;;;;;11.08;87.11;100740.88;4988022;28;20477;-86
2022/04/28 08:30:30;;;;;;;22.05;13.38;;;;;;;10.46;86.32;100680.59;4982232;28;20489;-87
2022/04/28 08:33:03;;;;;;;25.70;13.25;;;;;;;10.71;88.83;100734.91;4965892;28;20392;-82
2022/04/28 08:35:38;;;;;;;23.85;13.20;;;;;;;10.35;88.01;100700.00;5001929;28;20026;-83
2022/04/28 08:38:13;;;;;;;22.67;13.90;;;;;;;10.45;87.33;100706.00;4967571;28;20125;-83
2022/04/28 08:40:42;;;;;;;21.83;15.20;;;;;;;10.63;87.83;100734.03;4985772;28;20437;-85
2022/04/28 08:43:10;;;;;;;30.95;18.02;;;;;;;10.21;86.37;100688.22;4981665;28;20030;-85
2022/04/28 08:48:39;;;;;;;23.08;14.63;;;;;;;10.95;86.35;100764.94;4961157;28;20134;-86
2022/04/28 08:51:09;;;;;;;25.92;15.98;;;;;;;10.83;86.96;100716.28;5002841;28;20073;-86
2022/04/28 08:53:34;;;;;;;25.08;15.68;;;;;;;11.09;86.84;100776.69;4987753;28;20361;-86
2022/04/28 08:56:00;;;;;;;26.70;14.85;;;;;;;10.91;85.95;100773.31;4980777;28;20456;-81
2022/04/28 08:58:27;;;;;;;26.55;16.20;;;;;;;10.93;86.07;100761.66;4979385;28;20030;-81
2022/04/28 09:00:53;;;;;;;33.25;16.85;;;;;;;11.18;86.22;100774.94;4979469;28;20461;-80
2022/04/28 09:03:19;;;;;;;25.13;16.10;;;;;;;11.21;85.19;100758.88;4964631;28;20038;-82
2022/04/28 09:05:48;;;;;;;24.48;16.33;;;;;;;10.99;84.91;100760.22;4996139;28;20028;-83
2022/04/28 09:08:16;;;;;;;25.73;16.30;;;;;;;11.12;85.06;100759.81;4981991;28;20437;-82
2022/04/28 09:10:42;;;;;;;24.10;16.45;;;;;;;11.16;85.55;100766.38;4977374;28;20047;-81
2022/04/28 09:15:54;;;;;;;29.77;17.48;;;;;;;11.12;85.36;100773.78;5002394;28;20038;-81
2022/04/28 09:18:21;;;;;;;21.63;15.48;;;;;;;11.16;83.85;100765.59;5008105;28;20034;-82
2022/04/28 09:20:48;;;;;;;24.50;16.65;;;;;;;11.30;84.60;100788.66;5021432;28;20029;-79
2022/04/28 09:23:16;;;;;;;29.92;16.60;;;;;;;11.23;83.91;100777.94;5004933;28;20079;-82
2022/04/28 09:25:43;;;;;;;20.95;15.63;;;;;;;11.43;85.35;100785.59;5001599;28;20105;-81
2022/04/28 09:28:10;;;;;;;24.42;15.57;;;;;;;11.28;84.22;100783.56;5020712;28;20122;-81
2022/04/28 09:30:42;;;;;;;27.20;15.90;;;;;;;11.39;84.16;100798.22;5008168;28;20457;-82
2022/04/28 09:33:09;;;;;;;22.70;15.38;;;;;;;11.41;84.77;100782.31;4998689;28;20037;-82
2022/04/28 09:35:35;;;;;;;23.90;15.00;;;;;;;11.56;83.49;100783.34;5016244;28;20104;-81
2022/04/28 09:38:00;;;;;;;25.73;15.68;;;;;;;11.42;83.63;100791.84;5002168;28;20021;-81
2022/04/28 09:43:13;;;;;;;25.33;15.60;;;;;;;11.39;84.53;100797.41;5004075;28;20025;-81
2022/04/28 09:45:39;;;;;;;24.05;15.60;;;;;;;11.03;84.41;100781.78;5003110;28;20449;-81
2022/04/28 09:48:05;;;;;;;26.60;15.15;;;;;;;10.93;85.22;100792.38;5003138;28;20060;-84
2022/04/28 09:50:31;;;;;;;29.10;15.90;;;;;;;11.05;85.34;100800.81;4999740;28;20030;-83
2022/04/28 09:53:03;;;;;;;26.48;14.88;;;;;;;11.14;85.60;100805.16;4998276;28;20477;-82
2022/04/28 09:55:30;;;;;;;18.75;14.10;;;;;;;11.25;85.42;100807.53;4998418;28;20038;-81
2022/04/28 09:57:56;;;;;;;22.33;15.73;;;;;;;11.29;84.93;100777.31;5001161;28;20045;-82
2022/04/28 10:00:21;;;;;;;26.52;17.05;;;;;;;11.55;85.09;100781.69;4999753;28;20035;-84
2022/04/28 10:02:49;;;;;;;20.90;15.50;;;;;;;11.66;83.81;100777.97;5003498;28;20026;-83
2022/04/28 10:05:16;;;;;;;18.50;13.77;;;;;;;11.66;83.60;100777.97;5017499;28;20031;-83
2022/04/28 10:07:43;;;;;;;17.85;13.35;;;;;;;11.47;84.04;100784.31;5003340;28;20035;-81
2022/04/28 10:10:09;;;;;;;18.33;13.18;;;;;;;11.31;83.93;100781.59;4999451;28;20061;-82
2022/04/28 10:12:35;;;;;;;19.98;13.10;;;;;;;11.35;84.15;100777.66;4999645;28;20027;-82
2022/04/28 10:15:04;;;;;;;17.00;12.50;;;;;;;11.28;83.82;100801.13;5000056;28;20042;-82
2022/04/28 10:17:55;;;;;;;18.35;12.50;;;;;;;11.37;84.24;100797.56;4998018;28;20034;-82
2022/04/28 10:20:30;;;;;;;19.30;12.23;;;;;;;11.25;83.78;100786.50;4998693;28;20077;-82
2022/04/28 10:23:00;;;;;;;23.08;12.52;;;;;;;11.06;84.12;100758.59;5001618;28;20093;-84
2022/04/28 10:33:48;;;;;;;18.52;13.52;;;;;;;12.02;82.66;100770.88;5003499;28;20036;-83
2022/04/28 10:36:21;;;;;;;22.80;12.52;;;;;;;12.05;82.28;100775.81;5005239;28;20026;-83
2022/04/28 10:39:08;;;;;;;26.13;13.70;;;;;;;11.84;82.60;100766.50;4998826;28;20467;-82
2022/04/28 10:41:35;;;;;;;23.23;13.60;;;;;;;11.79;82.28;100781.97;4998189;28;20107;-83
2022/04/28 10:44:17;;;;;;;26.38;13.25;;;;;;;11.97;84.48;100780.06;4998851;28;20054;-83
2022/04/28 10:47:07;;;;;;;18.98;12.68;;;;;;;12.02;82.32;100781.41;4997441;28;20055;-83
2022/04/28 10:49:39;;;;;;;20.10;13.68;;;;;;;11.99;82.06;100777.28;5009653;28;20042;-83
2022/04/28 10:52:05;;;;;;;16.95;12.45;;;;;;;12.03;82.78;100777.78;4995667;28;20068;-83
2022/04/28 10:54:43;;;;;;;22.10;12.27;;;;;;;11.96;82.79;100769.66;5002138;28;20034;-83
2022/04/28 10:57:12;;;;;;;21.63;13.57;;;;;;;11.74;82.62;100790.31;5013765;28;20034;-82
2022/04/28 10:59:39;;;;;;;20.88;12.93;;;;;;;11.37;84.43;100773.06;5000134;28;20034;-83
2022/04/28 11:02:09;;;;;;;21.00;12.70;;;;;;;11.36;85.33;100781.94;5017155;28;20472;-83
2022/04/28 11:04:35;;;;;;;21.48;14.95;;;;;;;11.28;87.11;100770.41;5004763;28;20026;-83
2022/04/28 11:07:06;;;;;;;19.77;12.80;;;;;;;11.46;86.48;100782.66;5002236;28;20523;-83
2022/04/28 11:09:34;;;;;;;25.00;13.88;;;;;;;11.75;85.63;100799.88;4999076;28;20041;-82
2022/04/28 11:12:32;;;;;;;23.30;13.25;;;;;;;11.57;84.51;100774.47;4995275;28;20374;-83
2022/04/28 11:15:05;;;;;;;19.35;13.60;;;;;;;11.75;84.76;100791.97;4997726;28;20121;-84
2022/04/28 11:17:35;;;;;;;21.13;12.52;;;;;;;11.62;84.29;100792.41;5016914;28;20030;-84
2022/04/28 11:20:08;;;;;;;23.67;12.80;;;;;;;11.30;86.00;100778.16;5000054;28;20027;-83
2022/04/28 11:22:34;;;;;;;14.40;9.40;;;;;;;10.96;86.18;100786.81;5011468;28;20481;-83
2022/04/28 11:25:08;;;;;;;18.75;12.00;;;;;;;11.10;85.56;100785.41;5001282;28;20036;-83
2022/04/28 11:27:34;;;;;;;20.75;12.63;;;;;;;11.00;85.96;100778.47;5018695;28;20062;-83
2022/04/28 11:30:03;;;;;;;22.48;13.10;;;;;;;11.00;86.37;100778.47;5000966;28;20476;-83
2022/04/28 11:32:29;;;;;;;25.63;12.85;;;;;;;11.30;86.52;100770.25;5000528;28;20034;-84
2022/04/28 11:34:58;;;;;;;19.50;12.68;;;;;;;11.17;85.66;100789.06;4998526;28;20085;-83
2022/04/28 11:37:26;;;;;;;19.33;11.90;;;;;;;11.37;85.25;100788.84;5002458;28;20065;-84
2022/04/28 11:39:55;;;;;;;21.00;12.23;;;;;;;11.41;85.54;100793.63;4981539;28;20037;-83
2022/04/28 11:42:21;;;;;;;20.27;12.85;;;;;;;11.22;85.15;100772.84;4998334;28;20034;-83
2022/04/28 11:44:51;;;;;;;19.02;11.27;;;;;;;11.61;85.58;100788.13;4997137;28;20034;-85
2022/04/28 11:47:25;;;;;;;22.13;11.55;;;;;;;11.57;84.73;100784.19;5008773;28;20109;-86
2022/04/28 11:49:58;;;;;;;17.30;11.27;;;;;;;11.56;84.65;100777.28;4997523;28;20146;-86